Time;durP1;ratioP1;P1;durP2;ratioP2;P2;SDS_P1;SDS_P2;PMS_P1;PMS_P2;Temp;Humidity;BMP_temperature;BMP_pressure;BME280_temperature;BME280_humidity;BME280_pressure;Samples;Min_cycle;Max_cycle;Signal;HPM_P1;HPM_P2
2022/01/11 00:00:09;;;;;;;47.13;17.90;;;;;;;;;;4919650;29;20209;-85
2022/01/11 00:02:40;;;;;;;46.37;18.50;;;-3.70;99.90;;;;;;4920071;29;20213;-88
2022/01/11 00:05:08;;;;;;;51.87;19.63;;;-3.80;99.90;;;;;;4919938;29;20216;-84
2022/01/11 00:07:35;;;;;;;45.17;17.43;;;-3.80;99.90;;;;;;4920072;29;20260;-87
2022/01/11 00:10:07;;;;;;;46.67;17.67;;;-3.80;99.90;;;;;;4919955;29;20201;-83
2022/01/11 00:12:34;;;;;;;49.63;16.87;;;-3.80;99.90;;;;;;4919572;29;20660;-84
2022/01/11 00:15:01;;;;;;;45.73;16.70;;;-3.80;99.90;;;;;;4919361;29;20687;-85
2022/01/11 00:17:29;;;;;;;50.03;16.73;;;-3.80;99.90;;;;;;4919740;29;20206;-84
2022/01/11 00:19:58;;;;;;;45.17;18.10;;;-3.90;99.90;;;;;;4919454;29;20558;-83
2022/01/11 00:22:31;;;;;;;56.57;20.43;;;-3.90;99.90;;;;;;4919867;29;20257;-85
2022/01/11 00:24:57;;;;;;;43.17;16.33;;;-3.90;99.90;;;;;;4919651;29;20205;-85
2022/01/11 00:27:23;;;;;;;44.57;16.90;;;-4.00;99.90;;;;;;4919690;29;20720;-85
2022/01/11 00:29:52;;;;;;;43.43;16.17;;;-4.00;99.90;;;;;;4919511;29;20716;-88
2022/01/11 00:32:29;;;;;;;41.30;16.13;;;-4.10;99.90;;;;;;4919774;29;20312;-83
2022/01/11 00:34:58;;;;;;;44.13;17.30;;;-4.10;99.90;;;;;;4919416;29;20560;-89
2022/01/11 00:37:27;;;;;;;39.40;14.93;;;-4.20;99.90;;;;;;4919143;29;20237;-84
2022/01/11 00:39:54;;;;;;;45.93;16.73;;;-4.20;99.90;;;;;;4919400;29;20201;-85
2022/01/11 00:42:22;;;;;;;38.97;13.57;;;-4.30;99.90;;;;;;4919486;29;20666;-84
2022/01/11 00:44:50;;;;;;;42.23;15.90;;;-4.30;99.90;;;;;;4918953;29;20300;-86
2022/01/11 00:47:20;;;;;;;53.83;17.20;;;-4.40;1.00;;;;;;4919002;29;20266;-86
2022/01/11 00:49:50;;;;;;;48.50;17.87;;;-4.40;1.00;;;;;;4919264;29;20209;-81
2022/01/11 00:52:19;;;;;;;47.40;16.70;;;-4.50;1.00;;;;;;4918846;29;20209;-88
2022/01/11 00:54:46;;;;;;;47.67;17.23;;;-4.50;1.00;;;;;;4918675;29;20208;-87
2022/01/11 00:57:13;;;;;;;45.40;17.23;;;-4.50;1.00;;;;;;4919143;29;20237;-87
2022/01/11 00:59:40;;;;;;;39.97;15.40;;;-4.60;1.00;;;;;;4918379;29;20206;-86
2022/01/11 01:02:07;;;;;;;47.77;17.03;;;-4.60;1.00;;;;;;4919122;29;20201;-83
2022/01/11 01:04:34;;;;;;;41.40;14.83;;;-4.60;1.00;;;;;;4919071;29;20253;-83
2022/01/11 01:07:01;;;;;;;54.40;19.03;;;-4.70;1.00;;;;;;4918710;29;20209;-86
2022/01/11 01:09:38;;;;;;;50.07;18.10;;;-4.70;1.00;;;;;;4918640;29;20269;-87
2022/01/11 01:12:07;;;;;;;60.10;17.97;;;-4.60;1.00;;;;;;4918862;29;20307;-83
2022/01/11 01:14:34;;;;;;;36.37;13.10;;;-4.70;1.00;;;;;;4918653;29;20252;-84
2022/01/11 01:17:01;;;;;;;48.10;17.37;;;-4.60;1.00;;;;;;4918595;29;20253;-83
2022/01/11 01:19:28;;;;;;;58.60;20.17;;;-4.60;1.00;;;;;;4918844;29;20276;-82
2022/01/11 01:21:55;;;;;;;57.23;18.73;;;-4.70;1.00;;;;;;4918264;29;20210;-83
2022/01/11 01:24:24;;;;;;;30.30;12.87;;;-4.70;1.00;;;;;;4918348;29;20650;-87
2022/01/11 01:26:53;;;;;;;45.40;17.87;;;-4.70;1.00;;;;;;4918924;29;20209;-85
2022/01/11 01:29:20;;;;;;;51.97;16.33;;;-4.80;1.00;;;;;;4918762;29;20205;-83
2022/01/11 01:31:47;;;;;;;49.47;17.37;;;-4.80;1.00;;;;;;4918021;29;20273;-84
2022/01/11 01:34:14;;;;;;;43.67;15.77;;;-4.80;1.00;;;;;;4918225;29;20652;-85
2022/01/11 01:36:41;;;;;;;49.50;17.23;;;-4.90;1.00;;;;;;4917991;29;20226;-84
2022/01/11 01:39:08;;;;;;;49.63;16.73;;;-4.90;1.00;;;;;;4918337;29;20331;-84
2022/01/11 01:41:35;;;;;;;43.07;16.87;;;-5.00;1.00;;;;;;4918233;29;20628;-83
2022/01/11 01:44:04;;;;;;;44.90;16.90;;;-5.00;1.00;;;;;;4917874;29;20205;-83
2022/01/11 01:46:32;;;;;;;48.77;17.00;;;-5.00;1.00;;;;;;4918069;29;20213;-83
2022/01/11 01:49:01;;;;;;;58.40;20.17;;;-5.00;1.00;;;;;;4918160;29;20257;-85
2022/01/11 01:51:28;;;;;;;52.57;20.03;;;-4.90;1.00;;;;;;4918347;29;20684;-84
2022/01/11 01:53:56;;;;;;;49.67;18.80;;;-4.90;1.00;;;;;;4917933;29;20557;-86
2022/01/11 01:56:25;;;;;;;62.17;21.70;;;-5.00;1.00;;;;;;4917926;29;20597;-83
2022/01/11 01:58:52;;;;;;;54.27;17.63;;;-5.00;1.00;;;;;;4918281;29;20262;-86
2022/01/11 02:01:21;;;;;;;61.93;20.07;;;-5.00;1.00;;;;;;4917788;29;20679;-84
2022/01/11 02:03:48;;;;;;;55.40;19.70;;;-5.00;1.00;;;;;;4918102;29;20296;-83
2022/01/11 02:06:17;;;;;;;60.70;21.57;;;-5.00;1.00;;;;;;4917331;29;20628;-86
2022/01/11 02:08:45;;;;;;;55.13;19.27;;;-5.00;1.00;;;;;;4917795;29;20261;-85
2022/01/11 02:11:15;;;;;;;60.23;18.90;;;-5.00;1.00;;;;;;4916423;29;20292;-87
2022/01/11 02:13:42;;;;;;;59.07;20.07;;;-5.10;1.00;;;;;;4917625;29;20198;-85
2022/01/11 02:16:09;;;;;;;55.77;18.53;;;-5.10;1.00;;;;;;4917528;29;20252;-84
2022/01/11 02:18:38;;;;;;;46.87;16.13;;;-5.10;1.00;;;;;;4917514;29;20208;-84
2022/01/11 02:21:06;;;;;;;43.30;13.60;;;-5.20;1.00;;;;;;4917198;29;20205;-87
2022/01/11 02:23:33;;;;;;;44.60;16.50;;;-5.30;1.00;;;;;;4917548;29;20206;-83
2022/01/11 02:26:01;;;;;;;58.10;17.80;;;-5.30;1.00;;;;;;4917521;29;20197;-83
2022/01/11 02:28:29;;;;;;;58.23;18.17;;;-5.30;1.00;;;;;;4917388;29;20204;-83
2022/01/11 02:30:58;;;;;;;51.43;18.93;;;-5.30;1.00;;;;;;4917234;29;20201;-84
2022/01/11 02:33:35;;;;;;;58.67;18.83;;;-5.30;1.00;;;;;;4917028;29;20205;-84
2022/01/11 02:36:04;;;;;;;47.90;18.77;;;-5.30;1.00;;;;;;4917209;29;20220;-83
2022/01/11 02:38:33;;;;;;;57.37;19.43;;;-5.30;1.00;;;;;;4917132;29;20607;-84
2022/01/11 02:41:00;;;;;;;54.20;18.37;;;-5.30;1.00;;;;;;4917254;29;20197;-83
2022/01/11 02:43:27;;;;;;;54.07;19.77;;;-5.30;1.00;;;;;;4917189;29;20201;-83
2022/01/11 02:45:54;;;;;;;56.10;19.40;;;-5.30;1.00;;;;;;4916383;29;20579;-83
2022/01/11 02:48:22;;;;;;;63.53;20.93;;;-5.30;1.00;;;;;;4917349;29;20198;-83
2022/01/11 02:50:49;;;;;;;51.00;17.43;;;-5.30;1.00;;;;;;4916978;29;20201;-83
2022/01/11 02:53:17;;;;;;;63.17;19.53;;;-5.30;1.00;;;;;;4916834;29;20253;-83
2022/01/11 02:55:46;;;;;;;57.20;19.17;;;-5.30;1.00;;;;;;4916957;29;20212;-83
2022/01/11 02:58:14;;;;;;;50.27;17.87;;;-5.30;1.00;;;;;;4916774;29;20224;-83
2022/01/11 03:00:41;;;;;;;51.10;15.77;;;-5.40;1.00;;;;;;4916463;29;20201;-82
2022/01/11 03:03:10;;;;;;;53.50;19.80;;;-5.40;1.00;;;;;;4916396;29;20675;-83
2022/01/11 03:05:37;;;;;;;59.47;20.00;;;-5.40;1.00;;;;;;4916289;29;20554;-84
2022/01/11 03:08:05;;;;;;;58.50;20.37;;;-5.40;1.00;;;;;;4916465;29;20213;-83
2022/01/11 03:10:33;;;;;;;59.93;20.87;;;-5.40;1.00;;;;;;4916357;29;20210;-84
2022/01/11 03:13:03;;;;;;;51.47;18.57;;;-5.40;1.00;;;;;;4916647;29;20225;-82
2022/01/11 03:15:30;;;;;;;48.03;19.93;;;-5.40;1.00;;;;;;4916353;29;20252;-83
2022/01/11 03:17:57;;;;;;;60.40;18.97;;;-5.40;1.00;;;;;;4916605;29;20200;-83
2022/01/11 03:20:24;;;;;;;62.60;21.40;;;-5.40;1.00;;;;;;4916534;29;20201;-84
2022/01/11 03:22:51;;;;;;;53.83;18.90;;;-5.50;1.00;;;;;;4916522;29;20284;-83
2022/01/11 03:25:19;;;;;;;48.83;18.50;;;-5.50;1.00;;;;;;4916260;29;20293;-83
2022/01/11 03:27:47;;;;;;;52.33;18.57;;;-5.50;1.00;;;;;;4916542;29;20252;-83
2022/01/11 03:30:16;;;;;;;53.10;17.00;;;-5.50;1.00;;;;;;4916416;29;20268;-84
2022/01/11 03:32:43;;;;;;;53.73;18.83;;;-5.60;1.00;;;;;;4916242;29;20236;-83
2022/01/11 03:35:12;;;;;;;52.70;16.73;;;-5.60;1.00;;;;;;4916148;29;20200;-83
2022/01/11 03:37:40;;;;;;;69.83;26.60;;;-5.70;1.00;;;;;;4915885;29;20221;-83
2022/01/11 03:40:11;;;;;;;53.73;18.73;;;-5.70;1.00;;;;;;4916452;29;20273;-83
2022/01/11 03:42:38;;;;;;;55.63;20.20;;;-5.80;1.00;;;;;;4916058;29;20209;-83
2022/01/11 03:45:06;;;;;;;62.77;20.43;;;-5.80;1.00;;;;;;4915892;29;20193;-83
2022/01/11 03:47:35;;;;;;;57.03;19.93;;;-5.80;1.00;;;;;;4916122;29;20253;-83
2022/01/11 03:50:02;;;;;;;54.10;19.20;;;-5.80;1.00;;;;;;4916297;29;20272;-83
2022/01/11 03:52:29;;;;;;;54.80;19.27;;;-5.80;1.00;;;;;;4916307;29;20217;-83
2022/01/11 03:55:03;;;;;;;52.73;17.67;;;-5.80;1.00;;;;;;4915995;29;20562;-83
2022/01/11 03:57:32;;;;;;;60.83;20.83;;;-5.80;1.00;;;;;;4915851;29;20720;-83
2022/01/11 04:00:00;;;;;;;49.37;18.53;;;-5.80;1.00;;;;;;4916336;29;20720;-84
2022/01/11 04:02:28;;;;;;;55.37;20.17;;;-5.80;1.00;;;;;;4916243;29;20197;-84
2022/01/11 04:04:57;;;;;;;59.23;19.80;;;-5.80;1.00;;;;;;4916031;29;20270;-83
2022/01/11 04:07:26;;;;;;;53.70;18.80;;;-5.80;1.00;;;;;;4915743;29;20696;-84
2022/01/11 04:09:54;;;;;;;51.33;19.03;;;-5.80;1.00;;;;;;4916264;29;20201;-82
2022/01/11 04:12:21;;;;;;;60.43;20.27;;;-5.80;1.00;;;;;;4916070;29;20281;-83
2022/01/11 04:14:48;;;;;;;51.23;18.60;;;-5.90;1.00;;;;;;4915701;29;20249;-83
2022/01/11 04:17:16;;;;;;;64.77;20.97;;;-5.80;1.00;;;;;;4916070;29;20333;-83
2022/01/11 04:19:43;;;;;;;71.17;25.30;;;-5.90;1.00;;;;;;4916074;29;20277;-84
2022/01/11 04:22:11;;;;;;;64.23;23.67;;;-5.90;1.00;;;;;;4915938;29;20264;-84
2022/01/11 04:24:38;;;;;;;67.80;24.43;;;-5.90;1.00;;;;;;4915870;29;20591;-82
2022/01/11 04:27:06;;;;;;;70.97;24.87;;;-6.00;1.00;;;;;;4915771;29;20209;-83
2022/01/11 04:29:33;;;;;;;65.07;23.13;;;-5.90;1.00;;;;;;4915568;29;20209;-83
2022/01/11 04:32:00;;;;;;;63.07;22.80;;;-5.90;1.00;;;;;;4915784;29;20273;-83
2022/01/11 04:34:28;;;;;;;63.07;23.27;;;-6.00;1.00;;;;;;4917248;29;20210;-84
2022/01/11 04:36:56;;;;;;;57.27;21.87;;;-6.00;1.00;;;;;;4919169;29;20289;-83
2022/01/11 04:39:24;;;;;;;64.43;21.63;;;-6.00;1.00;;;;;;4919596;29;20268;-84
2022/01/11 04:41:51;;;;;;;63.30;21.33;;;-6.10;1.00;;;;;;4919795;29;20257;-83
2022/01/11 04:44:19;;;;;;;62.33;22.63;;;-6.10;1.00;;;;;;4919242;29;20280;-83
2022/01/11 04:46:46;;;;;;;61.77;20.20;;;-6.10;1.00;;;;;;4919271;29;20204;-83
2022/01/11 04:49:13;;;;;;;69.83;23.27;;;-6.10;1.00;;;;;;4919341;29;20217;-84
2022/01/11 04:51:40;;;;;;;57.97;20.37;;;-6.20;1.00;;;;;;4919046;29;20209;-83
2022/01/11 04:54:08;;;;;;;56.07;19.97;;;-6.20;1.00;;;;;;4919112;29;20205;-83
2022/01/11 04:56:36;;;;;;;56.53;21.07;;;-6.20;1.00;;;;;;4919223;29;20362;-83
2022/01/11 04:59:05;;;;;;;63.00;19.47;;;-6.20;1.00;;;;;;4918752;29;20589;-83
2022/01/11 05:01:33;;;;;;;51.63;19.47;;;-6.30;1.00;;;;;;4919017;29;20212;-83
2022/01/11 05:04:00;;;;;;;58.37;19.00;;;-6.30;1.00;;;;;;4918794;29;20204;-83
2022/01/11 05:06:27;;;;;;;51.73;18.97;;;-6.30;1.00;;;;;;4919394;29;20213;-84
2022/01/11 05:08:54;;;;;;;67.37;19.70;;;-6.30;1.00;;;;;;4919013;29;20241;-84
2022/01/11 05:11:22;;;;;;;55.80;19.03;;;-6.30;1.00;;;;;;4919111;29;20217;-83
2022/01/11 05:13:50;;;;;;;63.67;20.40;;;-6.30;1.00;;;;;;4918783;29;20213;-83
2022/01/11 05:16:17;;;;;;;70.37;23.73;;;-6.30;1.00;;;;;;4918612;29;20245;-84
2022/01/11 05:18:45;;;;;;;63.57;20.80;;;-6.30;1.00;;;;;;4918242;29;20659;-84
2022/01/11 05:21:12;;;;;;;63.90;22.23;;;-6.30;1.00;;;;;;4918826;29;20648;-83
2022/01/11 05:23:39;;;;;;;61.33;21.20;;;-6.30;1.00;;;;;;4918753;29;20649;-82
2022/01/11 05:26:06;;;;;;;56.93;21.23;;;-6.30;1.00;;;;;;4918614;29;20256;-83
2022/01/11 05:28:34;;;;;;;54.13;19.17;;;-6.30;1.00;;;;;;4918588;29;20197;-83
2022/01/11 05:31:03;;;;;;;57.97;19.73;;;-6.30;1.00;;;;;;4918187;29;20208;-83
2022/01/11 05:33:30;;;;;;;52.57;19.67;;;-6.30;1.00;;;;;;4917960;29;20229;-84
2022/01/11 05:35:57;;;;;;;60.30;21.23;;;-6.40;1.00;;;;;;4918216;29;20193;-84
2022/01/11 05:38:24;;;;;;;62.63;20.40;;;-6.40;1.00;;;;;;4917729;29;20233;-83
2022/01/11 05:40:51;;;;;;;59.07;19.67;;;-6.40;1.00;;;;;;4918506;29;20205;-84
2022/01/11 05:43:19;;;;;;;79.53;21.87;;;-6.40;1.00;;;;;;4918220;29;20209;-84
2022/01/11 05:45:47;;;;;;;52.90;19.43;;;-6.50;1.00;;;;;;4917765;29;20209;-84
2022/01/11 05:48:15;;;;;;;68.53;18.57;;;-6.50;1.00;;;;;;4917805;29;20236;-84
2022/01/11 05:50:43;;;;;;;61.03;20.23;;;-6.50;1.00;;;;;;4917948;29;20252;-83
2022/01/11 05:53:11;;;;;;;62.33;21.93;;;-6.50;1.00;;;;;;4918049;29;20221;-83
2022/01/11 05:55:38;;;;;;;49.53;19.03;;;-6.50;1.00;;;;;;4918126;29;20201;-83
2022/01/11 05:58:05;;;;;;;52.63;19.43;;;-6.50;1.00;;;;;;4918079;29;20212;-83
2022/01/11 06:00:32;;;;;;;56.00;19.23;;;-6.60;1.00;;;;;;4917947;29;20660;-83
2022/01/11 06:02:59;;;;;;;66.93;20.67;;;-6.60;1.00;;;;;;4917513;29;20253;-83
2022/01/11 06:05:28;;;;;;;56.97;19.43;;;-6.60;1.00;;;;;;4917743;29;20202;-84
2022/01/11 06:07:55;;;;;;;50.67;17.23;;;-6.60;1.00;;;;;;4917809;29;20205;-84
2022/01/11 06:10:22;;;;;;;51.13;17.90;;;-6.60;1.00;;;;;;4918027;29;20201;-83
2022/01/11 06:12:49;;;;;;;53.50;17.73;;;-6.70;99.90;;;;;;4917428;29;20221;-83
2022/01/11 06:15:16;;;;;;;55.37;18.77;;;-6.70;99.90;;;;;;4917676;29;20625;-83
2022/01/11 06:17:43;;;;;;;65.10;21.73;;;-6.80;99.90;;;;;;4917669;29;20217;-82
2022/01/11 06:20:11;;;;;;;64.23;23.13;;;-6.80;1.00;;;;;;4917260;29;20216;-84
2022/01/11 06:22:40;;;;;;;73.20;23.57;;;-6.80;1.00;;;;;;4917414;29;20213;-83
2022/01/11 06:25:08;;;;;;;66.47;24.83;;;-6.70;1.00;;;;;;4917747;29;20205;-82
2022/01/11 06:27:39;;;;;;;65.93;23.57;;;-6.80;1.00;;;;;;4917452;29;20205;-83
2022/01/11 06:30:08;;;;;;;72.90;25.07;;;-6.70;1.00;;;;;;4917189;29;20664;-83
2022/01/11 06:32:36;;;;;;;74.43;24.63;;;-6.70;1.00;;;;;;4917423;29;20232;-84
2022/01/11 06:35:03;;;;;;;94.13;31.67;;;-6.70;1.00;;;;;;4917830;29;20193;-83
2022/01/11 06:37:30;;;;;;;89.07;30.67;;;-6.70;1.00;;;;;;4916342;29;20281;-83
2022/01/11 06:40:01;;;;;;;82.27;27.83;;;-6.70;1.00;;;;;;4917155;29;20205;-83
2022/01/11 06:42:28;;;;;;;72.60;25.03;;;-6.70;1.00;;;;;;4917170;29;20186;-84
2022/01/11 06:44:55;;;;;;;72.80;25.70;;;-6.70;1.00;;;;;;4917111;29;20216;-85
2022/01/11 06:47:22;;;;;;;75.73;27.10;;;-6.70;1.00;;;;;;4916901;29;20201;-83
2022/01/11 06:49:49;;;;;;;75.00;27.53;;;-6.70;1.00;;;;;;4916856;29;20221;-83
2022/01/11 06:52:16;;;;;;;78.00;26.67;;;-6.70;1.00;;;;;;4917088;29;20213;-83
2022/01/11 06:54:43;;;;;;;91.27;28.03;;;-6.70;1.00;;;;;;4917120;29;20289;-83
2022/01/11 06:57:11;;;;;;;83.93;27.33;;;-6.70;99.90;;;;;;4916534;29;20209;-84
2022/01/11 06:59:38;;;;;;;74.37;24.90;;;-6.70;1.00;;;;;;4916290;29;20284;-84
2022/01/11 07:02:06;;;;;;;78.17;26.63;;;-6.70;1.00;;;;;;4916412;29;20205;-84
2022/01/11 07:04:34;;;;;;;82.77;26.43;;;-6.70;1.00;;;;;;4916877;29;20201;-84
2022/01/11 07:07:01;;;;;;;71.00;24.03;;;-6.70;1.00;;;;;;4916874;29;20220;-84
2022/01/11 07:09:28;;;;;;;73.83;24.17;;;-6.60;1.00;;;;;;4916972;29;20265;-83
2022/01/11 07:11:55;;;;;;;55.73;16.87;;;-6.60;1.00;;;;;;4916956;29;20205;-84
2022/01/11 07:14:24;;;;;;;60.10;19.93;;;-6.60;1.00;;;;;;4916612;29;20221;-84
2022/01/11 07:16:51;;;;;;;58.83;20.37;;;-6.70;1.00;;;;;;4916475;29;20287;-84
2022/01/11 07:19:19;;;;;;;54.13;20.27;;;-6.70;1.00;;;;;;4916566;29;20201;-84
2022/01/11 07:21:47;;;;;;;67.13;21.83;;;-6.70;1.00;;;;;;4916521;29;20575;-83
2022/01/11 07:24:16;;;;;;;58.00;19.87;;;-6.70;1.00;;;;;;4916277;29;20568;-84
2022/01/11 07:26:43;;;;;;;62.50;21.90;;;-6.60;1.00;;;;;;4916619;29;20218;-83
2022/01/11 07:29:10;;;;;;;71.80;23.77;;;-6.60;1.00;;;;;;4915991;29;20220;-84
2022/01/11 07:31:41;;;;;;;68.70;23.73;;;-6.50;1.00;;;;;;4916228;29;20213;-83
2022/01/11 07:34:09;;;;;;;60.23;22.27;;;-6.40;1.00;;;;;;4916531;29;20308;-84
2022/01/11 07:36:37;;;;;;;67.30;21.57;;;-6.40;1.00;;;;;;4916323;29;20237;-83
2022/01/11 07:39:05;;;;;;;69.37;22.60;;;-6.30;1.00;;;;;;4916246;29;20221;-84
2022/01/11 07:41:32;;;;;;;69.83;24.43;;;-6.30;1.00;;;;;;4916169;29;20209;-83
2022/01/11 07:43:59;;;;;;;74.20;25.43;;;-6.20;1.00;;;;;;4916358;29;20201;-83
2022/01/11 07:46:26;;;;;;;64.57;22.67;;;-6.20;1.00;;;;;;4916645;29;20209;-83
2022/01/11 07:48:55;;;;;;;71.00;22.60;;;-6.20;1.00;;;;;;4916394;29;20660;-84
2022/01/11 07:51:22;;;;;;;67.40;23.07;;;-6.10;1.00;;;;;;4916110;29;20220;-84
2022/01/11 07:53:52;;;;;;;82.47;31.10;;;-6.00;1.00;;;;;;4916092;29;20233;-84
2022/01/11 07:56:19;;;;;;;86.27;30.97;;;-5.90;1.00;;;;;;4915757;29;20668;-83
2022/01/11 07:58:47;;;;;;;96.27;32.10;;;-5.80;1.00;;;;;;4915570;29;20212;-83
2022/01/11 08:01:14;;;;;;;93.47;33.40;;;-5.70;1.00;;;;;;4916297;29;20217;-83
2022/01/11 08:03:41;;;;;;;96.73;30.80;;;-5.70;1.00;;;;;;4916171;29;20205;-84
2022/01/11 08:06:12;;;;;;;81.00;29.50;;;-5.60;1.00;;;;;;4916254;29;20208;-84
2022/01/11 08:08:41;;;;;;;81.83;25.97;;;-5.50;1.00;;;;;;4916117;29;20363;-83
2022/01/11 08:11:10;;;;;;;76.10;27.47;;;-5.40;1.00;;;;;;4919346;29;20193;-83
2022/01/11 08:13:38;;;;;;;98.70;35.57;;;-5.40;1.00;;;;;;4919947;29;20615;-84
2022/01/11 08:16:05;;;;;;;89.37;32.30;;;-5.30;1.00;;;;;;4919521;29;20201;-84
2022/01/11 08:18:33;;;;;;;83.40;29.83;;;-5.10;1.00;;;;;;4919974;29;20205;-84
2022/01/11 08:21:00;;;;;;;85.37;30.93;;;-5.10;1.00;;;;;;4919553;29;20208;-84
2022/01/11 08:23:28;;;;;;;90.10;31.50;;;-4.90;1.00;;;;;;4919450;29;20683;-85
2022/01/11 08:25:56;;;;;;;86.47;28.27;;;-4.80;1.00;;;;;;4920144;29;20212;-85
2022/01/11 08:28:25;;;;;;;81.90;28.13;;;-4.60;1.00;;;;;;4919231;29;20230;-85
2022/01/11 08:30:52;;;;;;;78.87;28.23;;;-4.50;1.00;;;;;;4919509;29;20209;-84
2022/01/11 08:33:19;;;;;;;88.87;26.93;;;-4.40;1.00;;;;;;4918880;29;20215;-85
2022/01/11 08:35:47;;;;;;;65.13;25.47;;;-4.20;1.00;;;;;;4919654;29;20212;-85
2022/01/11 08:38:16;;;;;;;85.93;28.40;;;-4.00;1.00;;;;;;4919766;29;20235;-84
2022/01/11 08:40:45;;;;;;;82.23;28.27;;;-3.70;1.00;;;;;;4919704;29;20241;-85
2022/01/11 08:43:13;;;;;;;100.47;30.87;;;-3.50;1.00;;;;;;4919138;29;20205;-82
2022/01/11 08:45:41;;;;;;;108.33;34.53;;;-3.10;99.90;;;;;;4919027;29;20199;-84
2022/01/11 08:48:08;;;;;;;113.23;38.60;;;-2.40;99.90;;;;;;4919524;29;20212;-85
2022/01/11 08:50:35;;;;;;;127.43;42.87;;;-1.50;1.00;;;;;;4919136;29;20213;-85
2022/01/11 08:53:03;;;;;;;129.10;38.97;;;-0.80;1.00;;;;;;4918954;29;20225;-85
2022/01/11 08:55:30;;;;;;;90.67;31.17;;;0.00;1.00;;;;;;4919553;29;20205;-85
2022/01/11 08:57:59;;;;;;;61.97;27.67;;;0.70;1.00;;;;;;4919543;29;20189;-86
2022/01/11 09:00:26;;;;;;;61.97;27.70;;;1.40;1.00;;;;;;4918321;29;20300;-86
2022/01/11 09:02:54;;;;;;;60.17;28.27;;;1.90;1.00;;;;;;4918156;29;20200;-86
2022/01/11 09:05:23;;;;;;;58.83;28.57;;;2.60;1.00;;;;;;4918748;29;20209;-84
2022/01/11 09:07:51;;;;;;;54.83;28.67;;;3.20;1.00;;;;;;4918028;29;20745;-87
2022/01/11 09:10:18;;;;;;;57.73;27.83;;;3.80;1.00;;;;;;4918145;29;20202;-85
2022/01/11 09:12:46;;;;;;;60.37;29.50;;;4.20;99.90;;;;;;4918767;29;20221;-85
2022/01/11 09:15:15;;;;;;;59.50;30.63;;;4.60;99.90;;;;;;4918406;29;20210;-87
2022/01/11 09:17:43;;;;;;;56.37;28.97;;;5.00;99.90;;;;;;4918506;29;20236;-85
2022/01/11 09:20:13;;;;;;;66.67;30.90;;;5.20;99.90;;;;;;4918156;29;20198;-86
2022/01/11 09:22:41;;;;;;;58.70;30.97;;;5.40;92.80;;;;;;4918668;29;20281;-87
2022/01/11 09:25:09;;;;;;;58.47;29.83;;;5.50;1.00;;;;;;4918379;29;20266;-87
2022/01/11 09:27:39;;;;;;;58.73;29.60;;;5.70;1.00;;;;;;4918111;29;20266;-86
2022/01/11 09:30:08;;;;;;;57.33;30.70;;;5.70;1.00;;;;;;4917622;29;20204;-87
2022/01/11 09:32:38;;;;;;;62.20;30.23;;;5.50;99.90;;;;;;4915701;29;20609;-86
2022/01/11 09:35:07;;;;;;;58.93;30.70;;;5.30;1.00;;;;;;4917946;29;20621;-85
2022/01/11 09:37:34;;;;;;;58.73;29.63;;;5.20;1.00;;;;;;4918478;29;20245;-87
2022/01/11 09:40:01;;;;;;;55.30;29.40;;;5.20;1.00;;;;;;4918477;29;20216;-86
2022/01/11 09:42:28;;;;;;;59.97;30.27;;;5.10;1.00;;;;;;4918179;29;20277;-87
2022/01/11 09:44:58;;;;;;;59.90;30.40;;;5.10;92.10;;;;;;4919607;29;20265;-85
2022/01/11 09:47:25;;;;;;;63.33;32.10;;;5.30;99.90;;;;;;4918721;29;20237;-86
2022/01/11 09:49:54;;;;;;;62.07;31.63;;;5.30;1.00;;;;;;4918271;29;20210;-87
2022/01/11 09:52:25;;;;;;;61.50;32.70;;;5.50;1.00;;;;;;4918059;29;20258;-86
2022/01/11 09:54:52;;;;;;;62.13;32.67;;;5.50;1.00;;;;;;4917686;29;20213;-87
2022/01/11 09:57:19;;;;;;;61.23;31.73;;;5.60;1.00;;;;;;4921558;29;20633;-88
2022/01/11 09:59:46;;;;;;;64.57;32.53;;;5.80;1.00;;;;;;4921618;29;20269;-86
2022/01/11 10:02:14;;;;;;;64.67;33.00;;;5.90;99.90;;;;;;4921941;29;20198;-87
2022/01/11 10:04:42;;;;;;;59.93;32.43;;;5.90;93.70;;;;;;4922068;29;20202;-87
2022/01/11 10:07:13;;;;;;;62.23;32.53;;;5.90;99.90;;;;;;4924012;29;20225;-88
2022/01/11 10:09:46;;;;;;;59.80;33.33;;;5.80;85.10;;;;;;4924249;29;20237;-86
2022/01/11 10:12:13;;;;;;;59.43;32.03;;;5.60;1.00;;;;;;4915022;29;20214;-85
2022/01/11 10:14:46;;;;;;;64.50;32.60;;;5.40;1.00;;;;;;4916251;29;20232;-85
2022/01/11 10:17:18;;;;;;;63.10;33.17;;;5.00;99.90;;;;;;4898655;29;20200;-86
2022/01/11 10:19:48;;;;;;;63.40;33.23;;;4.60;99.90;;;;;;4898400;29;20198;-85
2022/01/11 10:22:19;;;;;;;72.00;35.13;;;4.30;77.30;;;;;;4898378;29;20210;-85
2022/01/11 10:24:48;;;;;;;76.90;35.73;;;3.90;99.90;;;;;;4913519;29;20287;-84
2022/01/11 10:27:18;;;;;;;73.87;35.43;;;3.60;99.90;;;;;;4917110;29;20257;-85
2022/01/11 10:29:47;;;;;;;71.03;34.80;;;3.30;99.90;;;;;;4917559;29;20293;-83
2022/01/11 10:32:21;;;;;;;75.30;34.40;;;2.90;1.00;;;;;;4916509;29;20205;-83
2022/01/11 10:34:51;;;;;;;86.67;37.20;;;2.70;1.00;;;;;;4917007;29;20240;-85
2022/01/11 10:37:30;;;;;;;71.53;34.67;;;2.60;99.90;;;;;;4916945;29;20233;-85
2022/01/11 10:40:06;;;;;;;77.30;34.93;;;2.40;1.00;;;;;;4915898;29;20332;-86
2022/01/11 10:42:38;;;;;;;72.63;35.50;;;2.30;1.00;;;;;;4913260;29;20201;-85
2022/01/11 10:45:07;;;;;;;71.40;33.87;;;2.20;99.90;;;;;;4916578;29;20208;-85
2022/01/11 10:47:37;;;;;;;68.13;31.73;;;2.00;1.00;;;;;;4915917;29;20199;-82
2022/01/11 10:50:09;;;;;;;72.27;34.37;;;1.90;1.00;;;;;;4917044;29;20197;-85
2022/01/11 10:52:38;;;;;;;77.27;35.63;;;1.80;1.00;;;;;;4916928;29;20198;-83
2022/01/11 10:55:08;;;;;;;75.30;36.20;;;1.90;1.00;;;;;;4915686;29;20230;-86
2022/01/11 10:57:38;;;;;;;74.73;34.67;;;2.00;1.00;;;;;;4917211;29;20209;-85
2022/01/11 11:00:19;;;;;;;86.13;39.97;;;2.00;29.70;;;;;;4917366;29;20208;-85
2022/01/11 11:02:53;;;;;;;93.37;42.57;;;1.90;99.90;;;;;;4917040;29;20249;-86
2022/01/11 11:05:24;;;;;;;96.17;40.97;;;2.00;99.90;;;;;;4916950;29;20197;-84
2022/01/11 11:08:02;;;;;;;85.87;37.93;;;2.00;99.90;;;;;;4916864;29;20274;-86
2022/01/11 11:10:45;;;;;;;73.13;33.37;;;2.00;1.00;;;;;;4916130;29;20613;-84
2022/01/11 11:13:20;;;;;;;68.93;32.23;;;2.10;1.00;;;;;;4916379;29;20637;-84
2022/01/11 11:15:48;;;;;;;69.80;32.60;;;2.20;1.00;;;;;;4916193;29;20210;-84
2022/01/11 11:18:38;;;;;;;68.10;31.27;;;2.20;1.00;;;;;;4916615;29;20214;-85
2022/01/11 11:21:21;;;;;;;69.70;33.07;;;2.20;1.00;;;;;;4916347;29;20223;-84
2022/01/11 11:23:51;;;;;;;73.67;35.23;;;2.30;1.00;;;;;;4915881;29;20206;-85
2022/01/11 11:26:20;;;;;;;87.80;41.70;;;2.30;1.00;;;;;;4916528;29;20194;-84
2022/01/11 11:28:47;;;;;;;77.47;34.30;;;2.40;83.20;;;;;;4914997;29;20262;-83
2022/01/11 11:31:14;;;;;;;76.50;33.87;;;2.50;99.90;;;;;;4916285;29;20206;-84
2022/01/11 11:33:44;;;;;;;72.60;33.80;;;2.50;10.20;;;;;;4915396;29;20610;-84
2022/01/11 11:36:13;;;;;;;65.07;31.27;;;2.60;1.00;;;;;;4916151;29;20257;-84
2022/01/11 11:38:44;;;;;;;63.07;31.50;;;2.50;1.00;;;;;;4916779;29;20229;-84
2022/01/11 11:41:14;;;;;;;62.90;29.83;;;2.50;1.00;;;;;;4915802;29;20271;-83
2022/01/11 11:43:41;;;;;;;64.53;30.97;;;2.40;1.00;;;;;;4916118;29;20545;-85
2022/01/11 11:46:09;;;;;;;64.07;31.37;;;2.30;1.00;;;;;;4915767;29;20252;-86
2022/01/11 11:48:36;;;;;;;67.53;31.87;;;2.20;1.00;;;;;;4916466;29;20217;-83
2022/01/11 11:51:10;;;;;;;70.43;31.77;;;2.10;1.00;;;;;;4916298;29;20201;-85
2022/01/11 11:53:40;;;;;;;62.80;30.07;;;2.00;1.00;;;;;;4916285;29;20205;-85
2022/01/11 11:56:16;;;;;;;66.20;31.93;;;1.90;1.00;;;;;;4915339;29;20201;-86
2022/01/11 11:58:45;;;;;;;62.93;31.27;;;1.80;44.20;;;;;;4916399;29;20213;-85
2022/01/11 12:01:41;;;;;;;66.37;30.13;;;1.80;99.90;;;;;;4916300;29;20536;-85
2022/01/11 12:04:09;;;;;;;61.77;29.47;;;1.70;99.90;;;;;;4916438;29;20205;-85
2022/01/11 12:06:36;;;;;;;64.80;29.90;;;1.70;99.90;;;;;;4916104;29;20252;-86
2022/01/11 12:09:06;;;;;;;58.87;28.33;;;1.60;99.90;;;;;;4916097;29;20201;-86
2022/01/11 12:11:39;;;;;;;64.07;29.67;;;1.50;99.90;;;;;;4915949;29;20607;-85
2022/01/11 12:14:06;;;;;;;65.43;29.47;;;1.50;99.90;;;;;;4915781;29;20296;-84
2022/01/11 12:16:43;;;;;;;58.73;27.70;;;1.50;99.90;;;;;;4915952;29;20201;-85
2022/01/11 12:19:39;;;;;;;57.83;27.13;;;1.50;1.00;;;;;;4916268;29;20240;-85
2022/01/11 12:22:17;;;;;;;55.03;26.60;;;1.50;1.00;;;;;;4915700;29;20202;-85
2022/01/11 12:24:47;;;;;;;53.37;25.03;;;1.50;1.00;;;;;;4915714;29;20205;-83
2022/01/11 12:27:18;;;;;;;53.77;25.43;;;1.50;1.00;;;;;;4916010;29;20280;-86
2022/01/11 12:30:01;;;;;;;51.03;25.87;;;1.50;1.00;;;;;;4916059;29;20210;-83
2022/01/11 12:32:30;;;;;;;42.00;20.00;;;1.50;1.00;;;;;;4915925;29;20587;-83
2022/01/11 12:34:59;;;;;;;46.10;20.73;;;1.60;1.00;;;;;;4915013;29;20712;-85
2022/01/11 12:37:36;;;;;;;42.07;19.87;;;1.60;1.00;;;;;;4915091;29;20619;-83
2022/01/11 12:40:09;;;;;;;43.73;21.73;;;1.60;99.90;;;;;;4915830;29;20375;-84
2022/01/11 12:42:39;;;;;;;54.03;25.37;;;1.60;99.90;;;;;;4915635;29;20215;-84
2022/01/11 12:47:51;;;;;;;67.77;36.93;;;1.60;1.00;;;;;;4915565;29;20543;-85